Terminal Aerodrome Forecast
Issued by NWS

Home | Current Version | Previous Version | Text Only | Print | Product List | Glossary On
Versions: 1 2 3 4 5 6 7 8 9 10 11 12 13 14 15 16 17 18 19 20 21 22 23 24 25
000
FTUS43 KSGF 192100 AAB
TAFJLN
TAF AMD
KJLN 192134Z 1922/2018 VRB03KT 1SM BR OVC003
     FM200200 VRB03KT 1/2SM FG VV002
      TEMPO 2010/2014 1/4SM FG
     FM201600 20005KT 4SM BR BKN008=

USA.gov is the U.S. government's official web portal to all federal, state and local government web resources and services.